Time;durP1;ratioP1;P1;durP2;ratioP2;P2;SDS_P1;SDS_P2;PMS_P1;PMS_P2;Temp;Humidity;BMP_temperature;BMP_pressure;BME280_temperature;BME280_humidity;BME280_pressure;Samples;Min_cycle;Max_cycle;Signal;HPM_P1;HPM_P2
2021/05/01 00:01:48;;;;;;;14.98;9.88;;;;;;;12.77;100.00;100618.35;1608978;89;21223;-87
2021/05/01 00:08:22;;;;;;;18.20;11.05;;;;;;;12.82;100.00;100620.09;1609244;87;21159;-90
2021/05/01 00:30:20;;;;;;;13.93;9.68;;;;;;;12.94;100.00;100624.26;1598257;88;21282;-87
2021/05/01 00:40:42;;;;;;;16.45;13.00;;;;;;;12.93;100.00;100623.94;1611492;87;21587;-90
2021/05/01 00:43:10;;;;;;;16.65;13.15;;;;;;;12.90;100.00;100616.34;1624651;87;21258;-88
2021/05/01 00:50:34;;;;;;;14.15;10.93;;;;;;;12.80;100.00;100635.05;1589508;88;21584;-90
2021/05/01 00:57:56;;;;;;;19.05;13.05;;;;;;;12.79;100.00;100634.70;1600886;87;21198;-88
2021/05/01 01:03:48;;;;;;;17.12;13.18;;;;;;;12.90;100.00;100640.33;1623957;87;21638;-88
2021/05/01 01:06:44;;;;;;;15.10;12.73;;;;;;;12.94;100.00;100644.35;1617727;87;21255;-88
2021/05/01 01:32:30;;;;;;;24.05;14.80;;;;;;;12.64;100.00;100644.67;1609810;86;21615;-89
2021/05/01 01:34:58;;;;;;;22.02;14.18;;;;;;;12.57;100.00;100646.15;1616915;86;21181;-89
2021/05/01 01:41:41;;;;;;;21.93;14.58;;;;;;;12.58;100.00;100654.30;1599085;88;21337;-88
2021/05/01 01:48:32;;;;;;;21.33;15.23;;;;;;;12.68;100.00;100643.94;1564144;83;21183;-90
2021/05/01 01:51:46;;;;;;;17.23;14.65;;;;;;;12.76;100.00;100644.13;1625818;86;21199;-90
2021/05/01 01:58:20;;;;;;;22.00;15.60;;;;;;;12.81;100.00;100649.78;1618880;87;21232;-90
2021/05/01 02:01:16;;;;;;;18.42;16.02;;;;;;;12.82;100.00;100666.31;1616937;86;21182;-88
2021/05/01 02:03:46;;;;;;;20.82;17.95;;;;;;;12.82;100.00;100655.36;1621593;86;21160;-88
2021/05/01 02:14:14;;;;;;;31.80;19.00;;;;;;;12.74;100.00;100670.85;1575018;89;21193;-89
2021/05/01 02:20:06;;;;;;;27.80;20.27;;;;;;;12.74;100.00;100663.83;1598446;87;20295;-88
2021/05/01 02:25:59;;;;;;;25.65;21.15;;;;;;;12.73;100.00;100656.98;1586810;90;21479;-88
2021/05/01 02:28:55;;;;;;;31.77;21.93;;;;;;;12.70;100.00;100649.88;1588088;88;21200;-88
2021/05/01 02:31:24;;;;;;;30.88;22.87;;;;;;;12.65;100.00;100650.72;1592273;88;21176;-88
2021/05/01 02:37:43;;;;;;;27.75;22.15;;;;;;;12.58;100.00;100653.84;1593169;83;21211;-88
2021/05/01 02:47:06;;;;;;;31.23;22.90;;;;;;;12.43;100.00;100655.12;1613915;87;21326;-89
2021/05/01 02:57:12;;;;;;;24.37;17.50;;;;;;;12.24;100.00;100673.59;1616256;86;21607;-89
2021/05/01 03:00:11;;;;;;;25.12;16.77;;;;;;;12.21;100.00;100677.77;1625330;87;21222;-89
2021/05/01 03:06:30;;;;;;;15.32;12.07;;;;;;;12.15;100.00;100690.84;1621072;87;21629;-91
2021/05/01 03:12:50;;;;;;;32.48;13.25;;;;;;;12.10;100.00;100701.28;1604889;83;21222;-90
2021/05/01 03:16:11;;;;;;;18.73;12.70;;;;;;;12.15;100.00;100710.41;1615417;87;21172;-91
2021/05/01 03:23:07;;;;;;;;;;;;;;;12.08;100.00;100721.00;1627194;87;21165;-92
2021/05/01 03:29:56;;;;;;;17.45;12.98;;;;;;;12.05;100.00;100724.33;1622976;82;21200;-93
2021/05/01 03:39:45;;;;;;;21.30;15.13;;;;;;;12.04;100.00;100723.97;1642919;86;21196;-93
2021/05/01 03:42:37;;;;;;;23.73;19.95;;;;;;;12.04;100.00;100719.56;1649088;86;21490;-93
2021/05/01 03:49:06;;;;;;;21.52;16.30;;;;;;;12.08;100.00;100712.31;1644767;86;20285;-93
2021/05/01 03:52:08;;;;;;;17.80;15.03;;;;;;;12.08;100.00;100713.62;1650564;87;21160;-93
2021/05/01 03:59:00;;;;;;;14.60;12.00;;;;;;;12.13;100.00;100713.61;1642909;84;21180;-94
2021/05/01 04:01:56;;;;;;;13.55;11.45;;;;;;;12.21;100.00;100727.83;1642648;87;21662;-93
2021/05/01 04:08:15;;;;;;;16.85;11.08;;;;;;;12.34;100.00;100743.34;1613825;85;21615;-93
2021/05/01 04:18:35;;;;;;;15.48;12.20;;;;;;;12.67;100.00;100731.10;1612649;83;21091;-94
2021/05/01 04:33:55;;;;;;;15.88;14.20;;;;;;;13.15;100.00;100744.97;1592965;84;21180;-89
2021/05/01 04:44:39;;;;;;;20.77;15.78;;;;;;;13.44;100.00;100749.54;1645582;85;21196;-89
2021/05/01 04:47:56;;;;;;;19.37;15.68;;;;;;;13.51;100.00;100757.20;1650702;86;21152;-89
2021/05/01 04:50:24;;;;;;;17.30;14.98;;;;;;;13.53;100.00;100756.61;1591012;88;21156;-89
2021/05/01 04:53:05;;;;;;;25.30;16.00;;;;;;;13.60;100.00;100747.77;1612338;87;21368;-89
2021/05/01 04:58:57;;;;;;;26.55;21.25;;;;;;;13.76;100.00;100743.33;1617354;86;21302;-89
2021/05/01 05:01:26;;;;;;;27.93;22.02;;;;;;;13.85;100.00;100741.72;1623311;88;21132;-88
2021/05/01 05:07:50;;;;;;;37.20;29.12;;;;;;;13.96;100.00;100742.90;1589482;87;21394;-89
2021/05/01 05:11:10;;;;;;;28.90;23.95;;;;;;;14.03;100.00;100749.74;1625954;86;21193;-89
2021/05/01 05:13:39;;;;;;;51.23;30.20;;;;;;;14.07;100.00;100748.50;1591107;89;21181;-90
2021/05/01 05:16:09;;;;;;;45.88;30.80;;;;;;;14.24;100.00;100762.73;1579268;89;21220;-90
2021/05/01 05:18:38;;;;;;;42.10;28.60;;;;;;;14.35;100.00;100758.67;1597618;89;21417;-89
2021/05/01 05:24:56;;;;;;;53.83;29.50;;;;;;;14.58;100.00;100764.13;1571168;88;21258;-90
2021/05/01 05:27:27;;;;;;;46.48;28.52;;;;;;;14.78;100.00;100764.48;1561476;90;21288;-89
2021/05/01 05:29:56;;;;;;;36.15;28.70;;;;;;;14.91;100.00;100761.58;1582915;89;21196;-90
2021/05/01 05:32:25;;;;;;;66.50;28.87;;;;;;;15.04;100.00;100756.05;1620738;87;21184;-89
2021/05/01 05:34:54;;;;;;;33.45;27.67;;;;;;;15.11;100.00;100755.81;1617564;86;21489;-90
2021/05/01 05:37:22;;;;;;;37.33;27.55;;;;;;;15.16;100.00;100759.83;1615632;87;21219;-89
2021/05/01 05:39:50;;;;;;;41.85;28.10;;;;;;;15.21;100.00;100762.84;1621335;86;21624;-89
2021/05/01 05:42:22;;;;;;;;;;;;;;;15.28;100.00;100765.23;1629211;87;21137;-89
2021/05/01 05:44:51;;;;;;;41.80;27.17;;;;;;;15.34;100.00;100763.38;1618307;87;20268;-89
2021/05/01 05:47:20;;;;;;;33.42;27.07;;;;;;;15.39;100.00;100763.77;1630788;86;21470;-89
2021/05/01 05:49:49;;;;;;;40.25;27.65;;;;;;;15.42;100.00;100762.14;1617022;87;21474;-89
2021/05/01 05:52:17;;;;;;;32.08;26.93;;;;;;;15.45;100.00;100763.69;1616563;88;21678;-90
2021/05/01 05:55:03;;;;;;;36.03;26.97;;;;;;;15.43;100.00;100766.42;1615689;87;21207;-90
2021/05/01 05:57:32;;;;;;;38.08;26.40;;;;;;;15.40;100.00;100770.67;1615833;86;21231;-90
2021/05/01 06:00:00;;;;;;;34.20;25.48;;;;;;;15.40;100.00;100765.89;1611857;87;21386;-89
2021/05/01 06:02:29;;;;;;;33.92;25.45;;;;;;;15.45;100.00;100771.55;1605969;88;21205;-89
2021/05/01 06:05:18;;;;;;;37.17;25.02;;;;;;;15.52;100.00;100773.09;1622173;87;21192;-89
2021/05/01 06:07:51;;;;;;;37.93;26.07;;;;;;;15.57;100.00;100770.39;1606323;88;21098;-90
2021/05/01 06:10:21;;;;;;;31.95;25.52;;;;;;;15.60;100.00;100774.52;1590950;89;21117;-88
2021/05/01 06:12:52;;;;;;;31.70;25.55;;;;;;;15.61;100.00;100772.23;1583515;88;21614;-88
2021/05/01 06:15:24;;;;;;;33.18;24.32;;;;;;;15.63;100.00;100779.48;1597498;89;22022;-88
2021/05/01 06:17:55;;;;;;;34.35;25.12;;;;;;;15.67;100.00;100779.53;1597522;89;21154;-89
2021/05/01 06:20:26;;;;;;;33.73;25.00;;;;;;;15.77;100.00;100775.56;1593595;89;21106;-89
2021/05/01 06:22:55;;;;;;;39.58;25.80;;;;;;;15.89;100.00;100780.17;1619044;87;21211;-89
2021/05/01 06:29:48;;;;;;;32.90;25.88;;;;;;;16.09;100.00;100785.64;1607866;87;21216;-89
2021/05/01 06:32:20;;;;;;;36.58;24.40;;;;;;;16.32;100.00;100784.41;1552354;91;21214;-89
2021/05/01 06:34:55;;;;;;;31.25;23.87;;;;;;;16.40;100.00;100783.98;1523845;90;21177;-90
2021/05/01 06:41:32;;;;;;;26.70;22.75;;;;;;;16.56;100.00;100790.37;1567996;90;22289;-89
2021/05/01 06:44:07;;;;;;;32.00;26.02;;;;;;;16.67;100.00;100792.78;1624953;87;21167;-90
2021/05/01 06:46:38;;;;;;;45.15;26.93;;;;;;;16.72;100.00;100789.20;1600472;89;21169;-89
2021/05/01 06:49:19;;;;;;;42.67;26.97;;;;;;;16.78;100.00;100795.66;1597986;87;21164;-90
2021/05/01 06:52:02;;;;;;;43.78;27.27;;;;;;;16.93;100.00;100788.57;1841450;77;22297;-89
2021/05/01 06:54:31;;;;;;;33.05;25.85;;;;;;;16.99;100.00;100796.69;1811442;77;21111;-90
2021/05/01 06:57:00;;;;;;;29.37;24.40;;;;;;;17.08;100.00;100787.03;1800871;79;21345;-89
2021/05/01 07:07:44;;;;;;;28.92;24.32;;;;;;;17.42;100.00;100790.72;1810174;79;21456;-90
2021/05/01 07:23:02;;;;;;;30.37;24.67;;;;;;;17.84;100.00;100797.00;1806200;77;21443;-93
2021/05/01 07:30:01;;;;;;;27.07;21.93;;;;;;;17.91;100.00;100793.55;1808900;79;21164;-89
2021/05/01 07:33:03;;;;;;;27.65;22.73;;;;;;;18.13;100.00;100796.63;1775376;79;21617;-89
2021/05/01 07:35:38;;;;;;;25.08;21.35;;;;;;;18.19;100.00;100797.78;1778246;79;21132;-87
2021/05/01 07:38:11;;;;;;;25.27;19.98;;;;;;;18.24;100.00;100796.82;1808610;78;21572;-87
2021/05/01 07:40:47;;;;;;;24.50;21.23;;;;;;;18.26;100.00;100800.94;1804834;79;21147;-86
2021/05/01 07:43:26;;;;;;;26.02;21.35;;;;;;;18.37;100.00;100802.44;1744338;80;21545;-87
2021/05/01 07:50:18;;;;;;;18.17;15.45;;;;;;;18.67;100.00;100806.75;1743061;82;21151;-88
2021/05/01 08:05:38;;;;;;;27.13;20.02;;;;;;;19.19;100.00;100812.20;1734888;80;21621;-88
2021/05/01 08:12:30;;;;;;;18.50;15.58;;;;;;;19.27;100.00;100814.52;1738989;82;21201;-88
2021/05/01 08:23:33;;;;;;;20.60;18.40;;;;;;;19.54;100.00;100810.66;1725771;82;21181;-88
2021/05/01 08:30:24;;;;;;;26.33;18.05;;;;;;;19.85;100.00;100800.16;1729902;80;21575;-88
2021/05/01 08:37:17;;;;;;;22.13;17.50;;;;;;;20.26;100.00;100803.10;1718868;82;21127;-88
2021/05/01 08:44:10;;;;;;;16.60;14.30;;;;;;;20.37;100.00;100807.64;1738964;82;21193;-87
2021/05/01 08:51:00;;;;;;;16.93;15.00;;;;;;;20.56;100.00;100809.84;1709294;81;21058;-88
2021/05/01 09:01:50;;;;;;;11.18;10.08;;;;;;;21.27;100.00;100816.20;1709401;84;21186;-87
2021/05/01 09:08:44;;;;;;;11.40;9.25;;;;;;;21.52;100.00;100815.09;1710114;81;21041;-87
2021/05/01 09:11:13;;;;;;;12.53;9.75;;;;;;;21.50;100.00;100817.13;1703916;83;21142;-87
2021/05/01 09:13:48;;;;;;;11.43;9.48;;;;;;;21.40;100.00;100821.35;1754120;81;21584;-87
2021/05/01 09:16:20;;;;;;;9.38;8.48;;;;;;;21.32;100.00;100818.30;1733139;81;21176;-87
2021/05/01 09:21:40;;;;;;;7.55;6.47;;;;;;;21.50;100.00;100819.78;1871540;75;22297;-87
2021/05/01 09:24:14;;;;;;;7.15;6.28;;;;;;;21.60;100.00;100819.02;1833219;78;21136;-87
2021/05/01 09:26:44;;;;;;;8.75;7.00;;;;;;;21.74;100.00;100819.53;1827607;77;21048;-87
2021/05/01 09:29:34;;;;;;;5.60;5.03;;;;;;;21.83;100.00;100819.43;1832208;78;21066;-89
2021/05/01 09:32:05;;;;;;;7.10;5.33;;;;;;;21.81;100.00;100818.27;1824592;76;21149;-86
2021/05/01 09:34:38;;;;;;;6.17;5.28;;;;;;;21.74;100.00;100814.23;1831158;76;21535;-86
2021/05/01 09:37:08;;;;;;;5.97;5.37;;;;;;;21.77;100.00;100817.50;1843787;76;21108;-86
2021/05/01 09:39:58;;;;;;;8.55;5.20;;;;;;;21.81;95.87;100819.59;1874540;75;21357;-88
2021/05/01 09:42:30;;;;;;;5.72;5.22;;;;;;;21.79;88.59;100824.77;1874558;76;21136;-89
2021/05/01 09:45:21;;;;;;;5.97;5.42;;;;;;;21.66;89.66;100816.14;1844367;76;21096;-89
2021/05/01 09:47:50;;;;;;;5.78;5.28;;;;;;;21.73;100.00;100813.06;1871004;76;21580;-89
2021/05/01 09:50:28;;;;;;;6.10;5.30;;;;;;;21.87;96.04;100819.36;1843815;76;21141;-88
2021/05/01 09:53:04;;;;;;;5.80;5.30;;;;;;;21.95;92.11;100819.27;1819923;76;22258;-88
2021/05/01 09:55:54;;;;;;;5.67;5.17;;;;;;;22.06;89.91;100823.25;1828466;77;21132;-88
2021/05/01 09:58:28;;;;;;;5.62;5.12;;;;;;;22.18;76.73;100823.59;1828510;76;21152;-86
2021/05/01 10:01:13;;;;;;;6.58;5.45;;;;;;;22.24;100.00;100829.47;1794254;78;21058;-87
2021/05/01 10:03:42;;;;;;;7.72;5.75;;;;;;;22.39;88.57;100830.78;1823680;77;21070;-87
2021/05/01 10:06:15;;;;;;;7.22;5.70;;;;;;;22.42;91.72;100830.91;1830265;77;21492;-87
2021/05/01 10:08:53;;;;;;;6.12;5.58;;;;;;;22.31;85.02;100822.40;1808878;78;21163;-87
2021/05/01 10:11:27;;;;;;;5.78;5.28;;;;;;;22.10;91.74;100829.84;1736082;81;21140;-87
2021/05/01 10:13:57;;;;;;;7.28;5.92;;;;;;;22.03;89.58;100822.32;1758933;81;21265;-87
2021/05/01 10:16:25;;;;;;;6.67;5.55;;;;;;;22.14;84.07;100822.34;1767885;79;21553;-87
2021/05/01 10:22:48;;;;;;;6.90;5.65;;;;;;;22.43;81.02;100829.91;1741775;81;21138;-86
2021/05/01 10:42:16;;;;;;;8.95;6.20;;;;;;;22.67;81.30;100842.80;1888176;75;22265;-88
2021/05/01 10:45:00;;;;;;;6.22;5.72;;;;;;;22.42;78.73;100849.48;1829124;78;21154;-87
2021/05/01 10:47:29;;;;;;;9.13;6.20;;;;;;;22.18;88.63;100846.13;1802736;78;21366;-88
2021/05/01 10:50:18;;;;;;;7.28;6.50;;;;;;;21.95;84.39;100843.12;1823159;78;21594;-87
2021/05/01 10:52:49;;;;;;;6.85;6.22;;;;;;;21.87;89.38;100838.73;1821021;78;21169;-88
2021/05/01 10:55:17;;;;;;;7.08;5.92;;;;;;;21.98;96.65;100840.11;1739269;81;21065;-87
2021/05/01 10:57:58;;;;;;;6.35;5.62;;;;;;;22.29;85.06;100837.70;1784749;79;21054;-87
2021/05/01 11:00:43;;;;;;;7.95;5.50;;;;;;;22.55;79.81;100833.72;1765237;80;21372;-87
2021/05/01 11:03:15;;;;;;;7.62;5.20;;;;;;;22.77;86.03;100831.05;1752107;81;21566;-87
2021/05/01 11:05:45;;;;;;;7.55;5.67;;;;;;;22.93;69.20;100836.09;1764848;81;21152;-88
2021/05/01 11:08:44;;;;;;;6.12;4.70;;;;;;;22.81;70.72;100838.92;1784712;80;21143;-88
2021/05/01 11:11:14;;;;;;;5.92;5.42;;;;;;;22.58;69.49;100834.64;1784004;80;21184;-87
2021/05/01 11:13:46;;;;;;;7.72;5.35;;;;;;;22.34;77.21;100836.63;1784791;79;21376;-86
2021/05/01 11:16:18;;;;;;;5.95;5.45;;;;;;;22.29;74.63;100832.88;1781012;80;21568;-87
2021/05/01 11:18:49;;;;;;;5.33;4.72;;;;;;;22.38;75.52;100831.27;1784798;80;21125;-87
2021/05/01 11:21:20;;;;;;;7.15;5.72;;;;;;;22.59;72.02;100833.64;1784827;80;21232;-87
2021/05/01 11:23:51;;;;;;;6.30;5.70;;;;;;;22.74;69.74;100826.11;1784799;80;21191;-87
2021/05/01 11:26:19;;;;;;;5.87;5.30;;;;;;;22.87;67.36;100829.38;1784890;80;21181;-87
2021/05/01 11:28:48;;;;;;;5.12;4.72;;;;;;;22.92;70.24;100827.80;1769913;80;21157;-88
2021/05/01 11:31:18;;;;;;;5.42;4.92;;;;;;;22.83;63.01;100835.06;1781223;79;21143;-88
2021/05/01 11:33:47;;;;;;;7.42;5.28;;;;;;;22.72;65.87;100829.45;1775891;79;21143;-88
2021/05/01 11:36:20;;;;;;;5.28;4.78;;;;;;;22.59;63.79;100834.16;1780869;80;21140;-88
2021/05/01 11:38:51;;;;;;;6.70;4.90;;;;;;;22.31;60.52;100832.20;1731239;81;21365;-88
2021/05/01 11:41:19;;;;;;;5.42;4.92;;;;;;;22.10;64.49;100831.17;1755508;79;21143;-87
2021/05/01 11:43:50;;;;;;;5.97;5.33;;;;;;;22.10;67.12;100832.98;1733559;81;21425;-88
2021/05/01 11:46:33;;;;;;;6.40;5.30;;;;;;;22.30;75.80;100832.72;1733857;82;21155;-88
2021/05/01 11:49:08;;;;;;;5.67;4.83;;;;;;;22.60;76.30;100836.61;1684028;83;21272;-88
2021/05/01 11:52:03;;;;;;;5.17;4.37;;;;;;;22.94;72.37;100824.45;1697696;83;22586;-88
2021/05/01 11:54:59;;;;;;;5.62;4.78;;;;;;;23.28;69.46;100825.53;1719860;82;21145;-86
2021/05/01 11:57:45;;;;;;;5.20;4.70;;;;;;;23.60;58.39;100829.90;1728820;82;21154;-88
2021/05/01 12:00:33;;;;;;;4.75;4.20;;;;;;;23.66;59.17;100813.68;1722499;81;21134;-87
2021/05/01 12:03:08;;;;;;;4.30;3.90;;;;;;;23.71;62.21;100815.75;1733870;81;21195;-87
2021/05/01 12:05:39;;;;;;;3.77;3.47;;;;;;;23.76;57.24;100813.30;1730852;81;22283;-86
2021/05/01 12:08:14;;;;;;;5.45;4.15;;;;;;;23.79;54.55;100819.56;1734044;82;21167;-87
2021/05/01 12:10:48;;;;;;;6.50;3.92;;;;;;;23.83;58.17;100818.17;1729608;82;21585;-87
2021/05/01 12:13:24;;;;;;;4.33;3.47;;;;;;;23.92;57.28;100819.61;1715049;82;21516;-87
2021/05/01 12:15:56;;;;;;;4.90;4.37;;;;;;;24.00;57.40;100818.66;1709009;82;21103;-87
2021/05/01 12:21:50;;;;;;;4.70;4.30;;;;;;;24.14;52.81;100811.55;1705092;83;21123;-88
2021/05/01 12:24:27;;;;;;;4.28;3.75;;;;;;;24.01;55.68;100808.83;1705121;84;21159;-88
2021/05/01 12:27:42;;;;;;;4.17;3.80;;;;;;;24.06;54.24;100805.08;1705144;82;21080;-88
2021/05/01 12:30:43;;;;;;;4.60;4.20;;;;;;;24.04;53.92;100808.44;1704991;84;21155;-89
2021/05/01 12:33:33;;;;;;;5.62;5.00;;;;;;;24.08;55.81;100818.97;1683358;84;26592;-88
2021/05/01 12:36:12;;;;;;;4.20;3.80;;;;;;;24.08;59.78;100812.33;1705011;83;21211;-88
2021/05/01 12:38:43;;;;;;;7.00;3.98;;;;;;;24.12;55.86;100812.25;1705126;83;21230;-88
2021/05/01 12:41:18;;;;;;;5.10;3.47;;;;;;;24.05;55.39;100812.75;1703077;82;21411;-89
2021/05/01 12:43:49;;;;;;;6.00;3.47;;;;;;;24.07;56.47;100805.39;1704708;83;21171;-88
2021/05/01 12:46:33;;;;;;;3.50;3.20;;;;;;;24.13;54.54;100799.27;1704810;84;22259;-89
2021/05/01 12:49:35;;;;;;;3.83;3.52;;;;;;;24.23;53.42;100793.55;1887704;76;22804;-89
2021/05/01 12:52:08;;;;;;;4.33;3.75;;;;;;;24.30;54.45;100800.22;1849149;77;21103;-87
2021/05/01 12:59:22;;;;;;;3.60;3.30;;;;;;;24.58;50.86;100800.05;1849522;77;21455;-94
2021/05/01 13:15:04;;;;;;;7.15;3.00;;;;;;;24.15;49.96;100804.38;1816282;79;20997;-96
2021/05/01 13:21:25;;;;;;;;;;;;;;;23.74;48.45;100810.05;1786338;80;21172;-87
2021/05/01 13:23:53;;;;;;;5.92;3.12;;;;;;;23.52;51.80;100814.12;1759658;80;20272;-87
2021/05/01 13:26:27;;;;;;;6.33;3.85;;;;;;;23.29;52.91;100808.58;1767310;79;21155;-88
2021/05/01 13:28:56;;;;;;;3.67;3.33;;;;;;;23.02;52.38;100814.70;1801771;78;21360;-87
2021/05/01 13:31:24;;;;;;;8.05;4.35;;;;;;;22.78;54.44;100811.46;1777326;79;21543;-88
2021/05/01 13:37:46;;;;;;;3.67;3.00;;;;;;;22.75;58.16;100806.52;1788773;80;21156;-87
2021/05/01 13:40:23;;;;;;;3.67;3.00;;;;;;;23.02;54.69;100804.09;1771437;80;21147;-87
2021/05/01 13:42:51;;;;;;;6.03;3.40;;;;;;;23.19;51.01;100801.48;1768994;79;21531;-88
2021/05/01 13:45:21;;;;;;;4.10;3.45;;;;;;;23.28;53.90;100800.29;1759914;81;21178;-87
2021/05/01 13:47:50;;;;;;;5.90;2.85;;;;;;;23.33;50.00;100801.55;1785388;79;21678;-88
2021/05/01 13:50:27;;;;;;;3.45;3.12;;;;;;;23.37;49.04;100806.77;1761796;80;21115;-88
2021/05/01 13:53:06;;;;;;;3.58;3.27;;;;;;;23.43;55.21;100796.72;1787676;79;21123;-87
2021/05/01 13:55:39;;;;;;;3.10;2.80;;;;;;;23.45;53.08;100794.17;1788973;79;21511;-88
2021/05/01 13:58:14;;;;;;;4.12;3.20;;;;;;;23.46;50.01;100796.30;1729241;82;21182;-87
2021/05/01 14:00:54;;;;;;;4.67;3.27;;;;;;;23.44;47.39;100795.67;1741507;82;21144;-88
2021/05/01 14:03:32;;;;;;;5.67;3.40;;;;;;;23.40;51.40;100795.77;1743527;82;21168;-87
2021/05/01 14:06:02;;;;;;;4.72;3.27;;;;;;;23.38;47.98;100799.13;1815338;79;21107;-87
2021/05/01 14:08:34;;;;;;;3.45;2.80;;;;;;;23.34;48.86;100805.34;1795951;79;22326;-87
2021/05/01 14:11:04;;;;;;;3.30;3.00;;;;;;;23.32;47.00;100802.05;1815214;78;21144;-87
2021/05/01 14:13:36;;;;;;;3.45;3.08;;;;;;;23.28;49.58;100798.96;1815630;79;22035;-88
2021/05/01 14:16:16;;;;;;;3.33;3.08;;;;;;;23.25;48.78;100796.71;1815354;79;21124;-88
2021/05/01 14:18:45;;;;;;;3.50;3.20;;;;;;;23.20;48.73;100795.12;1814127;79;21432;-88
2021/05/01 14:21:14;;;;;;;8.13;3.60;;;;;;;23.16;55.25;100799.17;1786463;80;21362;-88
2021/05/01 14:24:09;;;;;;;3.90;3.00;;;;;;;23.20;53.13;100795.12;1792886;79;21164;-88
2021/05/01 14:26:51;;;;;;;3.65;3.33;;;;;;;23.19;53.82;100788.20;1792003;79;21477;-88
2021/05/01 14:29:19;;;;;;;;;;;;;;;23.17;51.22;100788.87;1783248;80;21132;-88
2021/05/01 14:32:16;;;;;;;4.62;3.20;;;;;;;22.99;49.80;100791.50;1783167;80;20238;-91
2021/05/01 14:35:08;;;;;;;5.62;3.35;;;;;;;22.81;52.13;100799.11;1877117;75;22727;-88
2021/05/01 14:45:28;;;;;;;4.17;2.90;;;;;;;22.55;51.59;100803.20;1784622;80;20993;-90
2021/05/01 14:48:24;;;;;;;4.70;3.25;;;;;;;22.55;52.87;100801.88;1757771;79;21119;-89
2021/05/01 14:51:01;;;;;;;3.65;2.92;;;;;;;22.58;55.40;100799.34;1805748;78;21123;-89
2021/05/01 14:57:07;;;;;;;6.67;3.17;;;;;;;22.46;51.96;100800.36;1769015;80;22546;-89
2021/05/01 14:59:55;;;;;;;3.47;3.02;;;;;;;22.28;51.15;100797.59;1772046;80;21134;-89
2021/05/01 15:02:59;;;;;;;3.33;2.87;;;;;;;22.16;50.96;100796.43;1761574;80;21593;-89
2021/05/01 15:09:24;;;;;;;4.67;3.27;;;;;;;22.05;54.96;100801.72;1786643;80;21117;-89
2021/05/01 15:12:20;;;;;;;3.87;3.00;;;;;;;22.01;52.03;100807.91;1750070;81;21471;-88
2021/05/01 15:15:17;;;;;;;3.20;2.90;;;;;;;21.99;53.45;100803.80;1780918;80;21140;-88
2021/05/01 15:21:37;;;;;;;3.95;3.58;;;;;;;21.97;55.27;100808.46;1749883;82;21127;-89
2021/05/01 15:24:09;;;;;;;8.10;3.77;;;;;;;21.92;57.14;100801.58;1780909;80;21568;-89
2021/05/01 15:26:41;;;;;;;5.85;4.08;;;;;;;21.86;59.13;100811.09;1778220;80;21278;-89
2021/05/01 15:29:09;;;;;;;3.60;3.30;;;;;;;21.80;58.40;100807.86;1780928;80;21129;-88
2021/05/01 15:39:32;;;;;;;5.58;4.35;;;;;;;21.77;57.98;100813.03;1789602;80;21150;-90
2021/05/01 15:46:23;;;;;;;8.83;4.92;;;;;;;21.59;59.55;100815.55;1788972;80;21162;-88
2021/05/01 15:53:19;;;;;;;4.50;3.87;;;;;;;21.30;65.54;100816.33;1783433;80;21173;-88
2021/05/01 16:06:38;;;;;;;47.50;7.03;;;;;;;20.83;75.22;100811.62;1757970;81;21550;-93
2021/05/01 16:09:07;;;;;;;25.50;5.83;;;;;;;20.76;87.00;100819.47;1787643;80;21119;-93
2021/05/01 16:11:38;;;;;;;25.02;5.15;;;;;;;20.73;85.31;100817.69;1789080;80;21118;-94
2021/05/01 16:14:11;;;;;;;20.97;5.45;;;;;;;20.70;86.94;100821.48;1788841;79;21162;-93
2021/05/01 16:16:41;;;;;;;20.25;5.92;;;;;;;20.67;91.59;100820.50;1788959;80;21452;-93
2021/05/01 16:19:11;;;;;;;17.70;6.22;;;;;;;20.60;90.85;100828.83;1788974;80;21179;-94
2021/05/01 16:25:33;;;;;;;21.07;7.03;;;;;;;20.50;89.85;100825.09;1789027;80;21828;-95
2021/05/01 16:36:00;;;;;;;35.15;7.80;;;;;;;20.42;90.17;100825.16;1757783;81;21478;-93
2021/05/01 16:38:31;;;;;;;72.90;9.48;;;;;;;20.39;86.94;100826.30;1699500;83;21115;-93
2021/05/01 16:44:33;;;;;;;132.97;11.45;;;;;;;20.39;87.34;100821.52;1748882;80;21239;-92
2021/05/01 16:47:01;;;;;;;98.65;10.88;;;;;;;20.40;94.53;100820.02;1751656;80;21086;-91
2021/05/01 16:49:37;;;;;;;9.75;6.10;;;;;;;20.40;89.15;100815.23;1743570;81;21114;-93
2021/05/01 16:52:14;;;;;;;10.32;6.15;;;;;;;20.39;88.57;100817.04;1705321;83;21217;-87
2021/05/01 16:54:43;;;;;;;52.17;8.48;;;;;;;20.36;75.60;100818.73;1739005;80;21081;-87
2021/05/01 16:57:15;;;;;;;40.35;7.65;;;;;;;20.33;88.67;100821.23;1754207;81;21363;-87
2021/05/01 16:59:47;;;;;;;33.78;8.10;;;;;;;20.33;96.58;100827.00;1749396;81;21140;-87
2021/05/01 17:02:16;;;;;;;39.78;8.85;;;;;;;20.31;100.00;100827.19;1722515;81;21165;-91
2021/05/01 17:09:18;;;;;;;150.87;14.38;;;;;;;20.27;100.00;100828.52;1747013;81;21128;-87
2021/05/01 17:11:51;;;;;;;65.35;9.68;;;;;;;20.20;100.00;100828.08;1751336;81;21141;-87
2021/05/01 17:14:21;;;;;;;29.05;8.65;;;;;;;20.15;100.00;100824.13;1737205;80;21640;-87
2021/05/01 17:17:19;;;;;;;43.13;8.85;;;;;;;20.09;100.00;100827.47;1727241;83;21086;-88
2021/05/01 17:24:12;;;;;;;23.80;14.75;;;;;;;19.92;88.28;100829.38;1728989;83;21202;-94
2021/05/01 17:27:10;;;;;;;52.73;12.35;;;;;;;19.79;83.92;100832.52;1699413;83;21222;-92
2021/05/01 17:29:41;;;;;;;43.63;11.60;;;;;;;19.73;100.00;100840.30;1738016;81;21166;-88
2021/05/01 17:32:09;;;;;;;22.42;13.15;;;;;;;19.65;100.00;100846.45;1697495;84;21220;-88
2021/05/01 17:34:38;;;;;;;22.22;11.90;;;;;;;19.57;100.00;100844.64;1733108;81;21163;-88
2021/05/01 17:37:06;;;;;;;35.78;12.23;;;;;;;19.51;100.00;100851.92;1708684;84;21202;-88
2021/05/01 17:39:34;;;;;;;33.60;12.58;;;;;;;19.46;100.00;100852.94;1732435;82;21202;-88
2021/05/01 17:42:03;;;;;;;37.95;13.62;;;;;;;19.41;100.00;100862.67;1738147;82;21155;-88
2021/05/01 17:44:33;;;;;;;37.78;13.10;;;;;;;19.37;100.00;100864.83;1738145;82;21207;-88
2021/05/01 17:47:02;;;;;;;38.35;13.45;;;;;;;19.32;100.00;100863.67;1736422;81;21190;-88
2021/05/01 17:49:30;;;;;;;66.25;14.60;;;;;;;19.28;100.00;100864.98;1723698;82;21175;-88
2021/05/01 17:51:59;;;;;;;38.65;13.70;;;;;;;19.23;100.00;100865.00;1694746;83;22133;-87
2021/05/01 17:54:27;;;;;;;25.65;12.60;;;;;;;19.19;100.00;100863.67;1678754;84;21163;-87
2021/05/01 17:56:56;;;;;;;24.35;12.15;;;;;;;19.14;100.00;100869.14;1700740;83;21158;-88
2021/05/01 17:59:24;;;;;;;14.38;9.10;;;;;;;19.08;100.00;100869.30;1677347;83;21180;-88
2021/05/01 18:01:52;;;;;;;20.88;11.38;;;;;;;18.98;100.00;100871.27;1708000;82;21155;-88
2021/05/01 18:04:22;;;;;;;22.20;10.82;;;;;;;18.81;100.00;100871.22;1707332;83;21341;-88
2021/05/01 18:06:52;;;;;;;20.27;11.33;;;;;;;18.65;100.00;100874.68;1707799;83;21076;-88
2021/05/01 18:09:20;;;;;;;18.15;10.85;;;;;;;18.50;100.00;100871.02;1712264;83;21140;-88
2021/05/01 18:11:49;;;;;;;19.98;11.55;;;;;;;18.40;100.00;100876.41;1709772;83;21081;-87
2021/05/01 18:14:17;;;;;;;15.03;10.95;;;;;;;18.33;100.00;100878.05;1746481;81;21609;-88
2021/05/01 18:16:46;;;;;;;18.80;11.05;;;;;;;18.24;100.00;100881.97;1740842;80;21481;-87
2021/05/01 18:19:14;;;;;;;16.17;10.82;;;;;;;18.16;100.00;100887.20;1675475;83;21227;-88
2021/05/01 18:21:42;;;;;;;21.85;11.78;;;;;;;18.03;100.00;100890.28;1721675;82;21172;-89
2021/05/01 18:24:11;;;;;;;24.12;12.47;;;;;;;17.90;100.00;100895.98;1701937;83;21158;-89
2021/05/01 18:26:40;;;;;;;16.10;11.12;;;;;;;17.77;100.00;100899.50;1706891;82;21148;-88
2021/05/01 18:29:08;;;;;;;14.87;10.05;;;;;;;17.57;100.00;100906.31;1730584;82;21383;-89
2021/05/01 18:31:38;;;;;;;16.82;11.60;;;;;;;17.35;100.00;100908.44;1687125;83;21171;-88
2021/05/01 18:34:06;;;;;;;13.18;9.48;;;;;;;17.17;100.00;100902.39;1715911;80;21179;-89
2021/05/01 18:36:37;;;;;;;13.38;8.35;;;;;;;17.02;100.00;100896.32;1714771;82;21228;-88